createdAt,value
2018-09-28T00:02:18.333Z,90.30
2018-09-28T00:04:46.759Z,89.90
2018-09-28T00:07:15.596Z,89.20
2018-09-28T00:09:44.490Z,88.70
2018-09-28T00:12:13.408Z,88.40
2018-09-28T00:14:42.301Z,87.90
2018-09-28T00:17:10.940Z,87.00
2018-09-28T00:19:39.311Z,86.80
2018-09-28T00:22:07.857Z,86.60
2018-09-28T00:24:36.741Z,86.80
2018-09-28T00:27:05.292Z,86.70
2018-09-28T00:29:33.709Z,85.90
2018-09-28T00:32:02.587Z,85.70
2018-09-28T00:34:31.332Z,86.00
2018-09-28T00:37:00.071Z,85.80
2018-09-28T00:39:28.573Z,85.30
2018-09-28T00:41:57.051Z,85.50
2018-09-28T00:44:25.885Z,86.40
2018-09-28T00:46:54.857Z,86.70
2018-09-28T00:49:23.539Z,87.70
2018-09-28T00:51:52.454Z,86.50
2018-09-28T00:54:20.911Z,86.30
2018-09-28T00:56:49.339Z,86.10
2018-09-28T00:59:18.026Z,86.60
2018-09-28T01:01:46.841Z,87.70
2018-09-28T01:04:15.668Z,87.10
2018-09-28T01:06:44.464Z,86.90
2018-09-28T01:09:14.721Z,86.20
2018-09-28T01:11:43.816Z,86.30
2018-09-28T01:14:12.805Z,86.70
2018-09-28T01:16:41.329Z,86.30
2018-09-28T01:19:10.074Z,86.20
2018-09-28T01:21:38.653Z,86.60
2018-09-28T01:24:07.148Z,86.20
2018-09-28T01:26:35.766Z,86.20
2018-09-28T01:29:04.359Z,86.70
2018-09-28T01:31:32.784Z,86.40
2018-09-28T01:34:01.514Z,85.80
2018-09-28T01:36:30.318Z,85.50
2018-09-28T01:38:58.916Z,86.10
2018-09-28T01:41:27.408Z,86.20
2018-09-28T01:43:55.776Z,86.20
2018-09-28T01:46:24.263Z,86.30
2018-09-28T01:48:52.831Z,85.90
2018-09-28T01:51:21.695Z,85.90
2018-09-28T01:53:50.073Z,86.50
2018-09-28T01:56:18.506Z,87.40
2018-09-28T01:58:46.953Z,86.70
2018-09-28T02:01:15.722Z,86.10
2018-09-28T02:03:44.438Z,86.50
2018-09-28T02:06:13.185Z,86.60
2018-09-28T02:08:41.641Z,86.60
2018-09-28T02:11:10.196Z,86.60
2018-09-28T02:13:38.712Z,86.70
2018-09-28T02:16:07.458Z,87.20
2018-09-28T02:18:35.940Z,87.60
2018-09-28T02:21:04.384Z,87.80
2018-09-28T02:23:32.762Z,87.80
2018-09-28T02:26:01.180Z,88.00
2018-09-28T02:28:29.750Z,88.00
2018-09-28T02:30:58.169Z,88.20
2018-09-28T02:33:26.826Z,88.10
2018-09-28T02:35:55.642Z,89.10
2018-09-28T02:38:24.036Z,89.40
2018-09-28T02:40:52.517Z,89.50
2018-09-28T02:43:21.560Z,89.30
2018-09-28T02:45:50.336Z,90.00
2018-09-28T02:48:19.293Z,89.50
2018-09-28T02:50:48.170Z,90.00
2018-09-28T02:53:18.130Z,90.60
2018-09-28T02:55:48.360Z,90.40
2018-09-28T02:58:16.860Z,90.70
2018-09-28T03:00:46.488Z,90.60
2018-09-28T03:03:15.040Z,90.80
2018-09-28T03:05:43.446Z,90.90
2018-09-28T03:08:12.101Z,91.40
2018-09-28T03:10:40.859Z,91.70
2018-09-28T03:13:09.679Z,91.70
2018-09-28T03:15:38.190Z,91.80
2018-09-28T03:18:07.446Z,91.80
2018-09-28T03:20:35.980Z,92.00
2018-09-28T03:23:04.913Z,92.20
2018-09-28T03:25:33.745Z,92.20
2018-09-28T03:28:02.512Z,92.10
2018-09-28T03:30:31.279Z,92.40
2018-09-28T03:33:00.101Z,92.20
2018-09-28T03:35:29.023Z,92.30
2018-09-28T03:37:57.731Z,92.30
2018-09-28T03:40:26.569Z,92.40
2018-09-28T03:42:54.956Z,92.60
2018-09-28T03:45:23.735Z,92.90
2018-09-28T03:47:52.703Z,92.80
2018-09-28T03:50:21.440Z,93.00
2018-09-28T03:52:50.299Z,93.20
2018-09-28T03:55:18.808Z,93.20
2018-09-28T03:57:47.736Z,93.50
2018-09-28T04:00:16.342Z,93.60
2018-09-28T04:02:45.279Z,93.80
2018-09-28T04:05:14.160Z,93.70
2018-09-28T04:07:42.875Z,93.80
2018-09-28T04:10:11.728Z,93.90
2018-09-28T04:12:40.129Z,94.00
2018-09-28T04:15:09.036Z,94.00
2018-09-28T04:17:37.637Z,94.10
2018-09-28T04:20:06.597Z,94.40
2018-09-28T04:22:35.439Z,94.60
2018-09-28T04:25:04.565Z,95.00
2018-09-28T04:27:33.137Z,95.00
2018-09-28T04:30:01.989Z,95.00
2018-09-28T04:32:36.979Z,95.10
2018-09-28T04:35:05.499Z,95.00
2018-09-28T04:37:34.198Z,95.20
2018-09-28T04:40:03.885Z,95.10
2018-09-28T04:42:32.596Z,95.30
2018-09-28T04:45:01.507Z,95.90
2018-09-28T04:47:30.268Z,96.20
2018-09-28T04:49:59.056Z,96.30
2018-09-28T04:52:27.852Z,96.20
2018-09-28T04:54:56.718Z,96.30
2018-09-28T04:57:25.426Z,96.40
2018-09-28T04:59:54.085Z,96.50
2018-09-28T05:02:29.551Z,96.60
2018-09-28T05:04:58.240Z,96.50
2018-09-28T05:07:27.072Z,96.70
2018-09-28T05:09:55.913Z,97.00
2018-09-28T05:12:24.680Z,96.80
2018-09-28T05:14:53.599Z,96.70
2018-09-28T05:17:22.395Z,97.10
2018-09-28T05:19:51.194Z,97.10
2018-09-28T05:22:20.159Z,97.20
2018-09-28T05:24:49.025Z,97.00
2018-09-28T05:27:17.935Z,97.10
2018-09-28T05:33:36.589Z,96.90
2018-09-28T05:36:05.566Z,96.80
2018-09-28T05:38:34.307Z,96.70
2018-09-28T05:41:03.065Z,96.70
2018-09-28T05:43:31.835Z,96.80
2018-09-28T05:46:00.453Z,96.70
2018-09-28T05:48:29.256Z,96.50
2018-09-28T05:50:58.232Z,96.40
2018-09-28T05:53:27.004Z,96.40
2018-09-28T05:55:55.425Z,96.40
2018-09-28T05:58:29.621Z,96.10
2018-09-28T06:01:03.743Z,95.80
2018-09-28T06:03:32.875Z,95.80
2018-09-28T06:06:02.819Z,95.90
2018-09-28T06:08:32.240Z,95.70
2018-09-28T06:11:01.039Z,95.70
2018-09-28T06:13:29.629Z,95.40
2018-09-28T06:15:58.273Z,95.50
2018-09-28T06:18:27.076Z,95.30
2018-09-28T06:20:55.834Z,95.10
2018-09-28T06:23:24.742Z,94.90
2018-09-28T06:25:53.550Z,94.90
2018-09-28T06:28:22.243Z,94.50
2018-09-28T06:30:51.023Z,93.60
2018-09-28T06:33:19.537Z,92.70
2018-09-28T06:35:48.359Z,92.00
2018-09-28T06:38:17.341Z,91.40
2018-09-28T06:40:46.116Z,90.70
2018-09-28T06:43:14.891Z,90.30
2018-09-28T06:45:43.795Z,90.20
2018-09-28T06:48:12.666Z,88.70
2018-09-28T06:50:41.411Z,87.50
2018-09-28T06:53:10.217Z,86.40
2018-09-28T06:55:39.109Z,85.00
2018-09-28T06:58:07.896Z,83.80
2018-09-28T07:00:36.625Z,83.30
2018-09-28T07:03:05.568Z,82.20
2018-09-28T07:05:34.609Z,81.40
2018-09-28T07:08:03.152Z,79.60
2018-09-28T07:10:31.635Z,79.00
2018-09-28T07:13:00.343Z,77.90
2018-09-28T07:15:29.268Z,75.90
2018-09-28T07:17:58.207Z,75.70
2018-09-28T07:20:27.195Z,75.30
2018-09-28T07:22:55.848Z,75.00
2018-09-28T07:25:24.553Z,74.30
2018-09-28T07:27:53.310Z,73.10
2018-09-28T07:30:22.362Z,72.30
2018-09-28T07:32:51.186Z,72.30
2018-09-28T07:35:19.907Z,72.50
2018-09-28T07:37:48.604Z,72.00
2018-09-28T07:40:17.519Z,71.90
2018-09-28T07:42:46.208Z,71.00
2018-09-28T07:45:15.029Z,70.20
2018-09-28T07:47:43.761Z,69.90
2018-09-28T07:50:12.621Z,69.30
2018-09-28T07:52:41.518Z,69.50
2018-09-28T07:55:10.808Z,70.90
2018-09-28T07:57:39.667Z,70.40
2018-09-28T08:00:08.517Z,70.20
2018-09-28T08:02:37.315Z,70.70
2018-09-28T08:05:06.613Z,69.90
2018-09-28T08:07:35.277Z,69.70
2018-09-28T08:10:04.165Z,69.60
2018-09-28T08:12:33.156Z,69.50
2018-09-28T08:15:01.864Z,69.70
2018-09-28T08:17:30.811Z,69.00
2018-09-28T08:20:00.131Z,69.50
2018-09-28T08:22:29.109Z,71.10
2018-09-28T08:24:57.985Z,71.90
2018-09-28T08:27:26.804Z,71.40
2018-09-28T08:29:55.565Z,71.50
2018-09-28T08:32:24.321Z,72.20
2018-09-28T08:34:53.178Z,72.00
2018-09-28T08:37:22.101Z,73.10
2018-09-28T08:39:50.950Z,73.90
2018-09-28T08:42:19.805Z,74.60
2018-09-28T08:44:48.711Z,73.50
2018-09-28T08:47:17.518Z,74.00
2018-09-28T08:49:46.324Z,74.50
2018-09-28T08:52:15.121Z,73.80
2018-09-28T08:54:43.957Z,73.90
2018-09-28T08:57:12.711Z,73.20
2018-09-28T08:59:41.442Z,71.90
2018-09-28T09:02:10.501Z,73.20
2018-09-28T09:04:39.156Z,73.50
2018-09-28T09:07:08.355Z,76.30
2018-09-28T09:09:37.164Z,73.90
2018-09-28T09:12:05.877Z,73.70
2018-09-28T09:14:34.791Z,72.60
2018-09-28T09:17:03.588Z,71.00
2018-09-28T09:19:32.435Z,71.90
2018-09-28T09:22:01.251Z,73.30
2018-09-28T09:24:35.474Z,71.90
2018-09-28T09:29:58.977Z,73.70
2018-09-28T09:32:27.616Z,73.60
2018-09-28T09:34:56.320Z,73.30
2018-09-28T09:37:24.972Z,70.90
2018-09-28T09:39:53.864Z,71.90
2018-09-28T09:42:23.053Z,70.60
2018-09-28T09:44:51.744Z,69.00
2018-09-28T09:47:20.552Z,68.90
2018-09-28T09:49:49.339Z,69.40
2018-09-28T09:52:18.129Z,70.20
2018-09-28T09:54:46.913Z,65.80
2018-09-28T09:57:15.637Z,62.70
2018-09-28T09:59:44.429Z,63.90
2018-09-28T10:03:22.729Z,66.60
2018-09-28T10:05:51.477Z,65.40
2018-09-28T10:08:20.452Z,60.90
2018-09-28T10:10:49.215Z,62.20
2018-09-28T10:13:18.033Z,62.20
2018-09-28T10:15:47.002Z,62.90
2018-09-28T10:18:15.758Z,62.30
2018-09-28T10:20:44.489Z,63.60
2018-09-28T10:23:13.488Z,62.30
2018-09-28T10:25:42.145Z,61.60
2018-09-28T10:28:11.112Z,61.20
2018-09-28T10:30:39.684Z,61.60
2018-09-28T10:33:08.480Z,62.70
2018-09-28T10:35:37.396Z,62.70
2018-09-28T10:38:06.232Z,58.80
2018-09-28T10:40:35.139Z,60.10
2018-09-28T10:43:03.838Z,60.30
2018-09-28T10:45:32.637Z,59.70
2018-09-28T10:48:01.367Z,60.80
2018-09-28T10:50:30.242Z,62.50
2018-09-28T10:52:58.725Z,61.70
2018-09-28T10:55:27.544Z,59.50
2018-09-28T10:57:56.345Z,60.90
2018-09-28T11:00:25.211Z,61.50
2018-09-28T11:02:53.955Z,61.30
2018-09-28T11:05:22.624Z,60.00
2018-09-28T11:07:51.333Z,59.80
2018-09-28T11:10:20.224Z,61.10
2018-09-28T11:12:49.092Z,63.60
2018-09-28T11:15:17.858Z,62.20
2018-09-28T11:17:46.527Z,63.00
2018-09-28T11:20:15.187Z,64.20
2018-09-28T11:22:43.736Z,65.10
2018-09-28T11:25:12.712Z,64.90
2018-09-28T11:27:41.444Z,64.10
2018-09-28T11:30:10.294Z,60.60
2018-09-28T11:32:39.014Z,59.70
2018-09-28T11:35:07.649Z,58.70
2018-09-28T11:37:36.592Z,60.60
2018-09-28T11:40:05.635Z,60.70
2018-09-28T11:42:34.436Z,61.10
2018-09-28T11:45:03.258Z,63.30
2018-09-28T11:47:32.129Z,63.00
2018-09-28T11:50:00.745Z,66.90
2018-09-28T11:52:29.482Z,63.60
2018-09-28T11:54:58.261Z,63.50
2018-09-28T11:57:27.203Z,66.10
2018-09-28T11:59:56.006Z,63.20
2018-09-28T12:02:24.720Z,59.40
2018-09-28T12:04:53.462Z,63.00
2018-09-28T12:07:22.146Z,63.30
2018-09-28T12:09:50.931Z,62.90
2018-09-28T12:12:19.658Z,61.30
2018-09-28T12:14:48.543Z,61.70
2018-09-28T12:17:17.362Z,61.80
2018-09-28T12:19:46.321Z,61.50
2018-09-28T12:22:15.024Z,60.40
2018-09-28T12:24:43.960Z,60.60
2018-09-28T12:27:12.708Z,59.50
2018-09-28T12:29:41.602Z,60.80
2018-09-28T12:32:10.352Z,62.10
2018-09-28T12:34:39.060Z,61.70
2018-09-28T12:37:08.059Z,61.60
2018-09-28T12:39:37.035Z,59.00
2018-09-28T12:42:05.792Z,59.30
2018-09-28T12:44:34.694Z,59.90
2018-09-28T12:47:03.408Z,58.70
2018-09-28T12:49:32.145Z,59.10
2018-09-28T12:52:00.883Z,60.60
2018-09-28T12:54:29.797Z,61.30
2018-09-28T12:56:58.481Z,62.10
2018-09-28T12:59:27.198Z,63.80
2018-09-28T13:01:56.031Z,63.60
2018-09-28T13:04:24.838Z,64.60
2018-09-28T13:06:53.815Z,65.90
2018-09-28T13:09:22.940Z,65.80
2018-09-28T13:11:51.726Z,66.60
2018-09-28T13:14:20.501Z,67.10
2018-09-28T13:16:49.220Z,69.40
2018-09-28T13:19:18.067Z,70.40
2018-09-28T13:21:46.883Z,71.90
2018-09-28T13:24:15.660Z,71.60
2018-09-28T13:26:44.578Z,72.90
2018-09-28T13:29:13.337Z,73.60
2018-09-28T13:31:42.412Z,72.40
2018-09-28T13:34:11.051Z,72.40
2018-09-28T13:36:40.113Z,72.50
2018-09-28T13:39:09.452Z,73.50
2018-09-28T13:41:38.397Z,74.00
2018-09-28T13:44:07.187Z,72.50
2018-09-28T13:46:36.070Z,71.80
2018-09-28T13:49:04.865Z,71.60
2018-09-28T13:51:33.569Z,70.70
2018-09-28T13:54:02.238Z,71.20
2018-09-28T13:56:31.206Z,71.90
2018-09-28T13:58:59.608Z,72.30
2018-09-28T14:01:28.373Z,72.70
2018-09-28T14:03:57.097Z,72.90
2018-09-28T14:06:25.829Z,73.30
2018-09-28T14:08:54.654Z,73.20
2018-09-28T14:11:23.052Z,73.40
2018-09-28T14:13:51.503Z,73.10
2018-09-28T14:16:20.790Z,73.10
2018-09-28T14:18:49.842Z,73.30
2018-09-28T14:21:18.259Z,73.30
2018-09-28T14:23:47.029Z,73.20
2018-09-28T14:26:16.042Z,73.50
2018-09-28T14:28:44.529Z,73.80
2018-09-28T14:31:12.996Z,73.90
2018-09-28T14:33:41.451Z,73.10
2018-09-28T14:36:09.891Z,72.60
2018-09-28T14:38:38.601Z,72.30
2018-09-28T14:41:07.074Z,71.80
2018-09-28T14:43:35.691Z,70.80
2018-09-28T14:46:04.619Z,69.70
2018-09-28T14:48:33.289Z,69.70
2018-09-28T14:51:01.976Z,68.50
2018-09-28T14:53:30.755Z,68.80
2018-09-28T14:55:59.161Z,68.10
2018-09-28T14:58:27.727Z,68.20
2018-09-28T15:00:56.656Z,70.30
2018-09-28T15:03:25.296Z,70.60
2018-09-28T15:05:54.380Z,70.60
2018-09-28T15:08:23.071Z,70.30
2018-09-28T15:10:51.841Z,70.50
2018-09-28T15:13:20.535Z,69.80
2018-09-28T15:15:49.301Z,67.60
2018-09-28T15:18:17.802Z,66.90
2018-09-28T15:20:46.244Z,68.90
2018-09-28T15:23:15.004Z,69.50
2018-09-28T15:25:43.748Z,69.80
2018-09-28T15:28:12.690Z,70.60
2018-09-28T15:30:41.405Z,69.30
2018-09-28T15:33:09.961Z,67.60
2018-09-28T15:35:38.661Z,69.80
2018-09-28T15:38:07.345Z,72.00
2018-09-28T15:40:36.088Z,72.50
2018-09-28T15:43:04.865Z,72.60
2018-09-28T15:45:34.254Z,72.50
2018-09-28T15:48:02.828Z,71.50
2018-09-28T15:50:31.550Z,70.80
2018-09-28T15:53:00.926Z,70.80
2018-09-28T15:55:29.346Z,72.10
2018-09-28T15:57:58.003Z,72.30
2018-09-28T16:00:26.774Z,72.50
2018-09-28T16:02:55.683Z,71.40
2018-09-28T16:05:24.608Z,71.50
2018-09-28T16:07:53.359Z,70.80
2018-09-28T16:10:22.276Z,70.40
2018-09-28T16:12:50.925Z,70.30
2018-09-28T16:15:19.748Z,70.50
2018-09-28T16:17:48.618Z,70.10
2018-09-28T16:20:17.632Z,69.90
2018-09-28T16:22:46.302Z,70.30
2018-09-28T16:25:15.005Z,70.40
2018-09-28T16:27:43.618Z,71.30
2018-09-28T16:30:12.357Z,71.80
2018-09-28T16:32:40.836Z,72.50
2018-09-28T16:35:09.741Z,72.20
2018-09-28T16:37:38.633Z,72.20
2018-09-28T16:40:07.524Z,72.70
2018-09-28T16:42:36.221Z,72.40
2018-09-28T16:45:04.903Z,72.10
2018-09-28T16:47:33.737Z,71.90
2018-09-28T16:50:02.509Z,71.90
2018-09-28T16:52:31.507Z,72.30
2018-09-28T16:55:00.086Z,72.50
2018-09-28T16:57:28.613Z,72.60
2018-09-28T16:59:57.410Z,73.10
2018-09-28T17:02:25.829Z,73.00
2018-09-28T17:04:54.288Z,72.90
2018-09-28T17:07:22.719Z,72.60
2018-09-28T17:09:51.100Z,73.00
2018-09-28T17:12:19.701Z,73.00
2018-09-28T17:14:48.140Z,72.80
2018-09-28T17:17:17.184Z,73.00
2018-09-28T17:19:46.069Z,73.20
2018-09-28T17:22:14.614Z,73.30
2018-09-28T17:24:42.975Z,73.60
2018-09-28T17:27:11.340Z,74.50
2018-09-28T17:29:39.771Z,75.10
2018-09-28T17:32:08.683Z,74.60
2018-09-28T17:34:37.568Z,74.50
2018-09-28T17:37:06.619Z,74.40
2018-09-28T17:39:35.559Z,73.90
2018-09-28T17:42:04.416Z,73.90
2018-09-28T17:44:33.220Z,73.90
2018-09-28T17:47:01.949Z,73.30
2018-09-28T17:49:30.634Z,74.20
2018-09-28T17:52:00.300Z,73.70
2018-09-28T17:54:29.174Z,73.30
2018-09-28T17:56:57.875Z,73.30
2018-09-28T17:59:26.491Z,73.30
2018-09-28T18:01:55.205Z,74.10
2018-09-28T18:04:24.152Z,74.80
2018-09-28T18:06:53.839Z,74.10
2018-09-28T18:09:22.713Z,74.00
2018-09-28T18:11:51.624Z,73.40
2018-09-28T18:14:20.470Z,73.50
2018-09-28T18:16:49.422Z,73.80
2018-09-28T18:19:18.237Z,72.90
2018-09-28T18:21:46.843Z,73.70
2018-09-28T18:24:15.682Z,73.40
2018-09-28T18:26:44.484Z,73.20
2018-09-28T18:29:13.145Z,73.30
2018-09-28T18:31:44.916Z,73.30
2018-09-28T18:34:14.335Z,73.30
2018-09-28T18:36:43.015Z,73.40
2018-09-28T18:39:11.849Z,73.50
2018-09-28T18:41:40.878Z,73.40
2018-09-28T18:44:09.612Z,73.70
2018-09-28T18:46:38.644Z,74.10
2018-09-28T18:49:07.451Z,74.20
2018-09-28T18:51:36.342Z,74.20
2018-09-28T18:54:05.230Z,74.80
2018-09-28T18:56:33.986Z,75.30
2018-09-28T18:59:02.905Z,75.50
2018-09-28T19:01:31.629Z,75.60
2018-09-28T19:04:00.357Z,75.50
2018-09-28T19:06:28.805Z,75.70
2018-09-28T19:08:57.607Z,76.10
2018-09-28T19:11:26.189Z,76.00
2018-09-28T19:13:54.899Z,75.60
2018-09-28T19:16:23.589Z,76.30
2018-09-28T19:18:52.605Z,76.60
2018-09-28T19:21:21.301Z,77.00
2018-09-28T19:23:50.291Z,77.10
2018-09-28T19:26:18.855Z,78.50
2018-09-28T19:28:47.611Z,76.10
2018-09-28T19:31:16.622Z,76.80
2018-09-28T19:33:45.303Z,76.90
2018-09-28T19:36:13.741Z,77.60
2018-09-28T19:38:42.208Z,77.90
2018-09-28T19:41:10.658Z,79.00
2018-09-28T19:43:39.645Z,79.90
2018-09-28T19:46:08.196Z,79.00
2018-09-28T19:48:36.549Z,79.60
2018-09-28T19:51:05.036Z,78.90
2018-09-28T19:53:33.558Z,79.10
2018-09-28T19:56:02.355Z,77.70
2018-09-28T19:58:30.988Z,76.90
2018-09-28T20:00:59.946Z,78.40
2018-09-28T20:03:28.703Z,77.80
2018-09-28T20:05:57.512Z,78.90
2018-09-28T20:08:26.204Z,79.50
2018-09-28T20:10:54.970Z,79.10
2018-09-28T20:13:29.303Z,79.90
2018-09-28T20:15:57.731Z,79.80
2018-09-28T20:18:26.149Z,79.60
2018-09-28T20:20:55.031Z,79.60
2018-09-28T20:23:23.499Z,80.60
2018-09-28T20:25:51.915Z,80.50
2018-09-28T20:28:20.680Z,80.20
2018-09-28T20:30:49.578Z,80.60
2018-09-28T20:33:18.479Z,80.50
2018-09-28T20:35:47.241Z,80.70
2018-09-28T20:38:16.050Z,80.20
2018-09-28T20:40:45.034Z,80.70
2018-09-28T20:43:13.686Z,81.10
2018-09-28T20:45:42.452Z,80.90
2018-09-28T20:48:11.157Z,80.90
2018-09-28T20:50:40.196Z,81.10
2018-09-28T20:53:08.970Z,81.10
2018-09-28T20:55:37.976Z,80.80
2018-09-28T20:58:06.829Z,82.20
2018-09-28T21:00:35.799Z,81.30
2018-09-28T21:03:04.472Z,81.20
2018-09-28T21:05:33.417Z,81.00
2018-09-28T21:08:02.431Z,81.30
2018-09-28T21:10:31.164Z,81.20
2018-09-28T21:13:00.209Z,81.20
2018-09-28T21:15:29.072Z,81.30
2018-09-28T21:17:57.981Z,81.10
2018-09-28T21:20:27.161Z,81.00
2018-09-28T21:22:56.025Z,81.40
2018-09-28T21:25:24.844Z,81.60
2018-09-28T21:27:53.655Z,82.80
2018-09-28T21:30:22.635Z,82.20
2018-09-28T21:32:51.811Z,82.00
2018-09-28T21:35:20.528Z,82.20
2018-09-28T21:37:49.709Z,82.50
2018-09-28T21:40:19.318Z,82.30
2018-09-28T21:42:49.627Z,82.10
2018-09-28T21:45:18.406Z,82.70
2018-09-28T21:47:48.103Z,82.50
2018-09-28T21:50:19.601Z,82.30
2018-09-28T21:52:52.984Z,82.70
2018-09-28T21:55:22.295Z,82.70
2018-09-28T21:57:51.498Z,82.70
2018-09-28T22:00:20.447Z,82.90
2018-09-28T22:02:49.393Z,83.30
2018-09-28T22:05:18.550Z,83.40
2018-09-28T22:07:48.897Z,83.30
2018-09-28T22:10:17.889Z,83.80
2018-09-28T22:12:46.984Z,83.70
2018-09-28T22:15:16.078Z,84.10
2018-09-28T22:17:44.887Z,84.30
2018-09-28T22:20:14.016Z,84.50
2018-09-28T22:22:42.799Z,85.00
2018-09-28T22:25:11.717Z,84.20
2018-09-28T22:27:40.516Z,84.20
2018-09-28T22:30:09.435Z,84.30
2018-09-28T22:32:38.207Z,84.70
2018-09-28T22:35:07.185Z,85.00
2018-09-28T22:37:36.201Z,84.80
2018-09-28T22:40:05.108Z,85.10
2018-09-28T22:42:33.862Z,85.80
2018-09-28T22:45:02.671Z,86.00
2018-09-28T22:47:31.576Z,86.00
2018-09-28T22:50:00.318Z,86.20
2018-09-28T22:52:29.320Z,87.00
2018-09-28T22:54:58.167Z,86.40
2018-09-28T22:57:27.098Z,86.30
2018-09-28T22:59:57.088Z,86.50
2018-09-28T23:02:25.953Z,86.50
2018-09-28T23:04:54.801Z,86.60
2018-09-28T23:07:23.423Z,86.50
2018-09-28T23:09:52.228Z,86.70
2018-09-28T23:12:21.292Z,87.60
2018-09-28T23:14:50.037Z,87.50
2018-09-28T23:17:18.944Z,87.60
2018-09-28T23:19:47.616Z,87.80
2018-09-28T23:22:16.425Z,88.20
2018-09-28T23:24:45.512Z,88.40
2018-09-28T23:27:14.501Z,88.40
2018-09-28T23:29:43.173Z,88.60
2018-09-28T23:32:12.034Z,88.70
2018-09-28T23:34:40.743Z,88.80
2018-09-28T23:37:09.762Z,89.00
2018-09-28T23:39:38.625Z,89.30
2018-09-28T23:42:07.408Z,89.20
2018-09-28T23:44:36.204Z,89.30
2018-09-28T23:47:05.421Z,89.20
2018-09-28T23:49:34.112Z,89.10
2018-09-28T23:52:03.087Z,89.80
2018-09-28T23:54:32.202Z,89.20
2018-09-28T23:57:01.193Z,90.10
2018-09-28T23:59:30.134Z,90.10
